SAWH/USH METAR and TAF weather

Enter ICAO airport designator
Station Type Date Time Source
SAWH METAR 2019/10/23 21:00 UTC NOAA

SAWH 232100Z 32012KT 9999 SCT040 SCT100 16/04 Q1006


Station Type Date Time Source
SAWH Decoded METAR 2019/10/23 21:00 UTC NOAA

Ushuaia Aerodrome, Argentina (SAWH) 54-48S 068-19W 14M
Oct 23, 2019 - 05:00 PM EDT / 2019.10.23 2100 UTC
Wind: from the NW (320 degrees) at 14 MPH (12 KT):0
Visibility: greater than 7 mile(s):0
Sky conditions: partly cloudy
Temperature: 60 F (16 C)
Dew Point: 39 F (4 C)
Relative Humidity: 44%
Pressure (altimeter): 29.71 in. Hg (1006 hPa)
ob: SAWH 232100Z 32012KT 9999 SCT040 SCT100 16/04 Q1006
cycle: 21

Station Type Date Time Source
SAWH TAF 2019/10/23 18:06 UTC NOAA

TAF SAWH 231700Z 2318/2418 36015KT 9999 BKN030 BKN060 TX15/2318Z TN05/2410Z
BECMG 2401/2403 34020G30KT CAVOK
BECMG 2407/2409 36010KT
BECMG 2411/2413 VRB05KT SCT030 SCT090
BECMG 2415/2418 BKN030 OVC060

Example: see airport list